Groton New London Airport Groton (New London) US
ICAO: KGON
IATA: GON
Category: Medium
Scheduled Services: No

Elevation: 9 ft
TransAlt. 18000 ft.

Airport Communications:
PROVIDENCE APP/DEP:125.75
ATIS:127
CLNC DEL:119.85
CTAF:125.6
GND:121.65
ARNG OPS:126.2
BRIDGEPORT RDO:122.1
TWR:125.6

KGON Zoom In..

If you have problems with the map follow the link
https://www.worldairports.se/pages/airport.php?
ICAO=KGON

Runways:

(A) RW 05 length 5000 ft width 150 ft
ILS 111.30 / hdg 48

(B) RW 15 length 4000 ft width 100 ft
---- / hdg 149

(C) RW 23 length 5000 ft width 150 ft
---- / hdg 228

(D) RW 33 length 4000 ft width 100 ft
---- / hdg 329

Location; KGON
Day. 14 / Time. 15.56 Zulu
* Altimeter: 29.42
* Temperature: 11° c. 51.8°f.
* Wind from: 180° Speed 04 kn.
Dewpoint: 11° c.
Visibility: 1/4 Statute Miles.
Conditions: Fog.

KGON 141556Z 18004KT 1/4SM R05/1400V1600FT FG VV003 11/11 A2942 RMK AO2 SLP964 T01110111


Wind From 180°
Speed 04 kn.

 
 
jpsmedia worldairports.se 2019   terms of use